IN-0035 weather

Sevoke Road Indian Army Heliport
Salugara, West Bengal, India

Public forecast

Using degrees Celsius for public forecast. Weather courtesy of forecast.io.

METAR (pilot weather report)

Closest report is Bagdogra Airport, 8.7 nm (16.1 km) SW. Retrieved 2019/07/23 16:30 UTC (12 minutes ago):

VEBD 231630Z 12005KT 2000 BRTSRA SCT005 BKN010 FEW025CB BKN080 26/24 Q1002 NOSIG

TAF (pilot weather forecast)

Closest forecast is Bagdogra Airport, 8.7 nm (16.1 km) SW. Retrieved 2019/07/23 12:30 UTC (4 hours ago):

TAF VEBD 230930Z 2312/2324 07008KT 6000 SCT020 BKN080 TEMPO 2314/2318 1500 TSRA FEW030CB OVC080 TEMPO 2320/2324 3000 TSRA FEW030CB